sensor_id;sensor_type;location;lat;lon;timestamp;P1;durP1;ratioP1;P2;durP2;ratioP2
71503;SDS011;59323;50.874;7.028;2022-08-19T00:01:52;15.00;;;9.70;;
71503;SDS011;59323;50.874;7.028;2022-08-19T00:04:20;14.40;;;9.93;;
71503;SDS011;59323;50.874;7.028;2022-08-19T00:06:47;14.15;;;9.00;;
71503;SDS011;59323;50.874;7.028;2022-08-19T00:09:14;15.27;;;9.60;;
71503;SDS011;59323;50.874;7.028;2022-08-19T00:11:41;13.95;;;8.90;;
71503;SDS011;59323;50.874;7.028;2022-08-19T00:14:08;13.60;;;9.02;;
71503;SDS011;59323;50.874;7.028;2022-08-19T00:16:35;13.15;;;8.55;;
71503;SDS011;59323;50.874;7.028;2022-08-19T00:19:02;13.32;;;8.68;;
71503;SDS011;59323;50.874;7.028;2022-08-19T00:21:28;13.47;;;8.30;;
71503;SDS011;59323;50.874;7.028;2022-08-19T00:23:54;15.02;;;8.95;;
71503;SDS011;59323;50.874;7.028;2022-08-19T00:26:23;16.45;;;9.52;;
71503;SDS011;59323;50.874;7.028;2022-08-19T00:28:49;14.07;;;8.57;;
71503;SDS011;59323;50.874;7.028;2022-08-19T00:31:14;12.52;;;8.35;;
71503;SDS011;59323;50.874;7.028;2022-08-19T00:33:41;11.73;;;8.13;;
71503;SDS011;59323;50.874;7.028;2022-08-19T00:36:07;14.60;;;8.87;;
71503;SDS011;59323;50.874;7.028;2022-08-19T00:38:34;12.75;;;8.38;;
71503;SDS011;59323;50.874;7.028;2022-08-19T00:41:00;13.70;;;7.82;;
71503;SDS011;59323;50.874;7.028;2022-08-19T00:43:25;13.27;;;7.50;;
71503;SDS011;59323;50.874;7.028;2022-08-19T00:45:53;12.45;;;7.65;;
71503;SDS011;59323;50.874;7.028;2022-08-19T00:48:19;11.80;;;8.13;;
71503;SDS011;59323;50.874;7.028;2022-08-19T00:50:46;12.25;;;7.60;;
71503;SDS011;59323;50.874;7.028;2022-08-19T00:53:14;11.98;;;7.75;;
71503;SDS011;59323;50.874;7.028;2022-08-19T00:55:44;12.10;;;6.90;;
71503;SDS011;59323;50.874;7.028;2022-08-19T00:58:12;13.73;;;7.47;;
71503;SDS011;59323;50.874;7.028;2022-08-19T01:00:42;11.83;;;7.70;;
71503;SDS011;59323;50.874;7.028;2022-08-19T01:03:09;11.00;;;7.65;;
71503;SDS011;59323;50.874;7.028;2022-08-19T01:05:36;11.57;;;7.13;;
71503;SDS011;59323;50.874;7.028;2022-08-19T01:08:04;11.07;;;7.10;;
71503;SDS011;59323;50.874;7.028;2022-08-19T01:10:33;11.70;;;6.90;;
71503;SDS011;59323;50.874;7.028;2022-08-19T01:13:04;12.05;;;6.93;;
71503;SDS011;59323;50.874;7.028;2022-08-19T01:15:31;12.05;;;7.13;;
71503;SDS011;59323;50.874;7.028;2022-08-19T01:18:00;12.63;;;7.65;;
71503;SDS011;59323;50.874;7.028;2022-08-19T01:20:29;9.83;;;6.97;;
71503;SDS011;59323;50.874;7.028;2022-08-19T01:22:56;12.50;;;6.90;;
71503;SDS011;59323;50.874;7.028;2022-08-19T01:25:34;11.20;;;6.65;;
71503;SDS011;59323;50.874;7.028;2022-08-19T01:28:04;13.53;;;7.77;;
71503;SDS011;59323;50.874;7.028;2022-08-19T01:30:32;12.73;;;6.95;;
71503;SDS011;59323;50.874;7.028;2022-08-19T01:32:59;11.45;;;6.60;;
71503;SDS011;59323;50.874;7.028;2022-08-19T01:35:25;12.93;;;7.87;;
71503;SDS011;59323;50.874;7.028;2022-08-19T01:37:55;13.85;;;8.57;;
71503;SDS011;59323;50.874;7.028;2022-08-19T01:40:25;14.55;;;7.65;;
71503;SDS011;59323;50.874;7.028;2022-08-19T01:42:52;11.23;;;7.72;;
71503;SDS011;59323;50.874;7.028;2022-08-19T01:45:19;12.20;;;7.80;;
71503;SDS011;59323;50.874;7.028;2022-08-19T01:47:45;11.73;;;7.60;;
71503;SDS011;59323;50.874;7.028;2022-08-19T01:50:11;13.60;;;7.68;;
71503;SDS011;59323;50.874;7.028;2022-08-19T01:52:38;10.70;;;7.50;;
71503;SDS011;59323;50.874;7.028;2022-08-19T01:55:06;15.32;;;8.02;;
71503;SDS011;59323;50.874;7.028;2022-08-19T01:57:34;15.13;;;8.80;;
71503;SDS011;59323;50.874;7.028;2022-08-19T02:00:00;14.77;;;8.43;;
71503;SDS011;59323;50.874;7.028;2022-08-19T02:02:27;15.93;;;8.90;;
71503;SDS011;59323;50.874;7.028;2022-08-19T02:04:53;13.87;;;8.17;;
71503;SDS011;59323;50.874;7.028;2022-08-19T02:07:19;14.30;;;8.57;;
71503;SDS011;59323;50.874;7.028;2022-08-19T02:09:46;13.95;;;7.78;;
71503;SDS011;59323;50.874;7.028;2022-08-19T02:12:13;12.30;;;7.80;;
71503;SDS011;59323;50.874;7.028;2022-08-19T02:14:39;13.93;;;9.18;;
71503;SDS011;59323;50.874;7.028;2022-08-19T02:17:04;15.23;;;9.05;;
71503;SDS011;59323;50.874;7.028;2022-08-19T02:19:30;13.20;;;7.97;;
71503;SDS011;59323;50.874;7.028;2022-08-19T02:21:57;13.82;;;8.65;;
71503;SDS011;59323;50.874;7.028;2022-08-19T02:24:23;15.43;;;8.83;;
71503;SDS011;59323;50.874;7.028;2022-08-19T02:26:49;14.52;;;8.82;;
71503;SDS011;59323;50.874;7.028;2022-08-19T02:29:14;15.80;;;10.07;;
71503;SDS011;59323;50.874;7.028;2022-08-19T02:31:39;16.03;;;10.07;;
71503;SDS011;59323;50.874;7.028;2022-08-19T02:34:05;16.02;;;9.75;;
71503;SDS011;59323;50.874;7.028;2022-08-19T02:36:30;17.23;;;11.10;;
71503;SDS011;59323;50.874;7.028;2022-08-19T02:38:56;17.93;;;10.63;;
71503;SDS011;59323;50.874;7.028;2022-08-19T02:41:22;18.33;;;12.07;;
71503;SDS011;59323;50.874;7.028;2022-08-19T02:43:53;17.60;;;11.23;;
71503;SDS011;59323;50.874;7.028;2022-08-19T02:46:27;16.75;;;11.48;;
71503;SDS011;59323;50.874;7.028;2022-08-19T02:48:56;16.88;;;11.02;;
71503;SDS011;59323;50.874;7.028;2022-08-19T02:51:31;17.00;;;12.02;;
71503;SDS011;59323;50.874;7.028;2022-08-19T02:53:59;18.58;;;12.05;;
71503;SDS011;59323;50.874;7.028;2022-08-19T02:56:25;20.90;;;12.17;;
71503;SDS011;59323;50.874;7.028;2022-08-19T02:58:52;16.75;;;10.95;;
71503;SDS011;59323;50.874;7.028;2022-08-19T03:01:19;18.00;;;11.83;;
71503;SDS011;59323;50.874;7.028;2022-08-19T03:03:50;17.27;;;11.75;;
71503;SDS011;59323;50.874;7.028;2022-08-19T03:06:15;17.02;;;10.95;;
71503;SDS011;59323;50.874;7.028;2022-08-19T03:08:42;19.17;;;12.18;;
71503;SDS011;59323;50.874;7.028;2022-08-19T03:11:17;16.10;;;11.23;;
71503;SDS011;59323;50.874;7.028;2022-08-19T03:13:47;17.20;;;11.47;;
71503;SDS011;59323;50.874;7.028;2022-08-19T03:16:20;17.58;;;11.57;;
71503;SDS011;59323;50.874;7.028;2022-08-19T03:18:47;18.05;;;11.65;;
71503;SDS011;59323;50.874;7.028;2022-08-19T03:21:19;18.30;;;11.43;;
71503;SDS011;59323;50.874;7.028;2022-08-19T03:23:53;16.80;;;10.70;;
71503;SDS011;59323;50.874;7.028;2022-08-19T03:26:19;17.13;;;10.90;;
71503;SDS011;59323;50.874;7.028;2022-08-19T03:28:45;17.08;;;11.23;;
71503;SDS011;59323;50.874;7.028;2022-08-19T03:31:16;16.27;;;10.30;;
71503;SDS011;59323;50.874;7.028;2022-08-19T03:33:44;17.75;;;11.18;;
71503;SDS011;59323;50.874;7.028;2022-08-19T03:38:41;17.27;;;11.05;;
71503;SDS011;59323;50.874;7.028;2022-08-19T03:41:10;16.23;;;10.60;;
71503;SDS011;59323;50.874;7.028;2022-08-19T03:43:39;15.60;;;10.80;;
71503;SDS011;59323;50.874;7.028;2022-08-19T03:46:06;22.50;;;11.60;;
71503;SDS011;59323;50.874;7.028;2022-08-19T03:48:34;15.40;;;10.60;;
71503;SDS011;59323;50.874;7.028;2022-08-19T03:51:01;16.08;;;10.57;;
71503;SDS011;59323;50.874;7.028;2022-08-19T03:53:28;17.83;;;11.27;;
71503;SDS011;59323;50.874;7.028;2022-08-19T03:55:54;17.03;;;11.03;;
71503;SDS011;59323;50.874;7.028;2022-08-19T03:58:21;16.55;;;10.45;;
71503;SDS011;59323;50.874;7.028;2022-08-19T04:00:47;15.57;;;11.18;;
71503;SDS011;59323;50.874;7.028;2022-08-19T04:03:12;15.13;;;10.47;;
71503;SDS011;59323;50.874;7.028;2022-08-19T04:05:38;17.55;;;11.52;;
71503;SDS011;59323;50.874;7.028;2022-08-19T04:08:04;16.07;;;10.57;;
71503;SDS011;59323;50.874;7.028;2022-08-19T04:10:30;17.48;;;11.15;;
71503;SDS011;59323;50.874;7.028;2022-08-19T04:13:00;17.10;;;10.77;;
71503;SDS011;59323;50.874;7.028;2022-08-19T04:15:25;16.10;;;11.00;;
71503;SDS011;59323;50.874;7.028;2022-08-19T04:17:52;18.80;;;10.30;;
71503;SDS011;59323;50.874;7.028;2022-08-19T04:20:18;15.32;;;10.20;;
71503;SDS011;59323;50.874;7.028;2022-08-19T04:22:43;16.57;;;10.30;;
71503;SDS011;59323;50.874;7.028;2022-08-19T04:25:08;16.33;;;10.97;;
71503;SDS011;59323;50.874;7.028;2022-08-19T04:27:34;20.42;;;11.23;;
71503;SDS011;59323;50.874;7.028;2022-08-19T04:30:00;17.27;;;10.57;;
71503;SDS011;59323;50.874;7.028;2022-08-19T04:32:25;16.20;;;10.55;;
71503;SDS011;59323;50.874;7.028;2022-08-19T04:34:51;16.80;;;10.67;;
71503;SDS011;59323;50.874;7.028;2022-08-19T04:37:16;17.77;;;10.40;;
71503;SDS011;59323;50.874;7.028;2022-08-19T04:39:41;15.07;;;10.03;;
71503;SDS011;59323;50.874;7.028;2022-08-19T04:42:25;14.32;;;10.13;;
71503;SDS011;59323;50.874;7.028;2022-08-19T04:45:11;15.40;;;9.88;;
71503;SDS011;59323;50.874;7.028;2022-08-19T04:47:39;16.95;;;10.07;;
71503;SDS011;59323;50.874;7.028;2022-08-19T04:50:06;15.30;;;10.20;;
71503;SDS011;59323;50.874;7.028;2022-08-19T04:52:33;18.20;;;11.63;;
71503;SDS011;59323;50.874;7.028;2022-08-19T04:54:59;19.13;;;11.82;;
71503;SDS011;59323;50.874;7.028;2022-08-19T04:57:24;19.15;;;11.18;;
71503;SDS011;59323;50.874;7.028;2022-08-19T04:59:54;16.47;;;10.50;;
71503;SDS011;59323;50.874;7.028;2022-08-19T05:02:21;19.92;;;11.00;;
71503;SDS011;59323;50.874;7.028;2022-08-19T05:04:49;17.60;;;11.75;;
71503;SDS011;59323;50.874;7.028;2022-08-19T05:07:15;17.15;;;11.23;;
71503;SDS011;59323;50.874;7.028;2022-08-19T05:09:41;18.83;;;10.73;;
71503;SDS011;59323;50.874;7.028;2022-08-19T05:12:06;18.73;;;12.43;;
71503;SDS011;59323;50.874;7.028;2022-08-19T05:14:32;19.15;;;12.43;;
71503;SDS011;59323;50.874;7.028;2022-08-19T05:16:57;16.57;;;10.67;;
71503;SDS011;59323;50.874;7.028;2022-08-19T05:19:22;17.07;;;11.33;;
71503;SDS011;59323;50.874;7.028;2022-08-19T05:22:06;17.98;;;11.57;;
71503;SDS011;59323;50.874;7.028;2022-08-19T05:24:50;20.10;;;11.93;;
71503;SDS011;59323;50.874;7.028;2022-08-19T05:27:16;18.50;;;12.07;;
71503;SDS011;59323;50.874;7.028;2022-08-19T05:29:41;18.87;;;11.43;;
71503;SDS011;59323;50.874;7.028;2022-08-19T05:32:07;16.98;;;11.85;;
71503;SDS011;59323;50.874;7.028;2022-08-19T05:34:33;18.87;;;11.87;;
71503;SDS011;59323;50.874;7.028;2022-08-19T05:37:01;19.08;;;10.95;;
71503;SDS011;59323;50.874;7.028;2022-08-19T05:39:29;20.63;;;12.25;;
71503;SDS011;59323;50.874;7.028;2022-08-19T05:41:59;19.45;;;11.70;;
71503;SDS011;59323;50.874;7.028;2022-08-19T05:44:33;26.23;;;15.60;;
71503;SDS011;59323;50.874;7.028;2022-08-19T05:47:00;34.10;;;18.93;;
71503;SDS011;59323;50.874;7.028;2022-08-19T05:49:28;33.38;;;20.83;;
71503;SDS011;59323;50.874;7.028;2022-08-19T05:51:54;37.40;;;19.75;;
71503;SDS011;59323;50.874;7.028;2022-08-19T05:54:23;36.33;;;20.90;;
71503;SDS011;59323;50.874;7.028;2022-08-19T05:56:49;39.72;;;21.65;;
71503;SDS011;59323;50.874;7.028;2022-08-19T05:59:17;34.10;;;21.60;;
71503;SDS011;59323;50.874;7.028;2022-08-19T06:01:44;36.70;;;21.27;;
71503;SDS011;59323;50.874;7.028;2022-08-19T06:04:11;37.22;;;21.80;;
71503;SDS011;59323;50.874;7.028;2022-08-19T06:06:40;36.53;;;22.42;;
71503;SDS011;59323;50.874;7.028;2022-08-19T06:09:06;37.93;;;22.57;;
71503;SDS011;59323;50.874;7.028;2022-08-19T06:11:49;37.60;;;21.73;;
71503;SDS011;59323;50.874;7.028;2022-08-19T06:14:20;36.97;;;21.88;;
71503;SDS011;59323;50.874;7.028;2022-08-19T06:16:47;36.10;;;20.57;;
71503;SDS011;59323;50.874;7.028;2022-08-19T06:19:14;31.70;;;19.55;;
71503;SDS011;59323;50.874;7.028;2022-08-19T06:21:42;34.67;;;21.00;;
71503;SDS011;59323;50.874;7.028;2022-08-19T06:24:10;35.53;;;22.42;;
71503;SDS011;59323;50.874;7.028;2022-08-19T06:26:40;37.28;;;22.30;;
71503;SDS011;59323;50.874;7.028;2022-08-19T06:29:08;39.20;;;21.90;;
71503;SDS011;59323;50.874;7.028;2022-08-19T06:31:35;34.72;;;21.13;;
71503;SDS011;59323;50.874;7.028;2022-08-19T06:34:02;36.45;;;21.92;;
71503;SDS011;59323;50.874;7.028;2022-08-19T06:36:31;36.10;;;20.48;;
71503;SDS011;59323;50.874;7.028;2022-08-19T06:39:06;41.35;;;21.40;;
71503;SDS011;59323;50.874;7.028;2022-08-19T06:41:38;39.60;;;22.43;;
71503;SDS011;59323;50.874;7.028;2022-08-19T06:44:05;37.17;;;21.15;;
71503;SDS011;59323;50.874;7.028;2022-08-19T06:46:31;40.25;;;22.25;;
71503;SDS011;59323;50.874;7.028;2022-08-19T06:48:57;35.00;;;20.93;;
71503;SDS011;59323;50.874;7.028;2022-08-19T06:51:23;34.87;;;20.67;;
71503;SDS011;59323;50.874;7.028;2022-08-19T06:53:49;33.35;;;20.13;;
71503;SDS011;59323;50.874;7.028;2022-08-19T06:56:17;30.58;;;18.98;;
71503;SDS011;59323;50.874;7.028;2022-08-19T06:58:45;32.47;;;18.80;;
71503;SDS011;59323;50.874;7.028;2022-08-19T07:01:11;36.47;;;21.90;;
71503;SDS011;59323;50.874;7.028;2022-08-19T07:03:38;32.85;;;20.05;;
71503;SDS011;59323;50.874;7.028;2022-08-19T07:06:08;33.80;;;19.77;;
71503;SDS011;59323;50.874;7.028;2022-08-19T07:08:37;31.15;;;19.00;;
71503;SDS011;59323;50.874;7.028;2022-08-19T07:11:09;30.33;;;17.10;;
71503;SDS011;59323;50.874;7.028;2022-08-19T07:13:37;30.50;;;16.92;;
71503;SDS011;59323;50.874;7.028;2022-08-19T07:16:08;24.30;;;14.75;;
71503;SDS011;59323;50.874;7.028;2022-08-19T07:18:35;27.35;;;18.23;;
71503;SDS011;59323;50.874;7.028;2022-08-19T07:21:06;32.63;;;18.88;;
71503;SDS011;59323;50.874;7.028;2022-08-19T07:23:34;26.10;;;16.13;;
71503;SDS011;59323;50.874;7.028;2022-08-19T07:26:06;29.25;;;18.30;;
71503;SDS011;59323;50.874;7.028;2022-08-19T07:28:34;31.85;;;18.70;;
71503;SDS011;59323;50.874;7.028;2022-08-19T07:31:00;33.07;;;18.10;;
71503;SDS011;59323;50.874;7.028;2022-08-19T07:33:27;27.75;;;17.05;;
71503;SDS011;59323;50.874;7.028;2022-08-19T07:35:52;23.17;;;15.18;;
71503;SDS011;59323;50.874;7.028;2022-08-19T07:38:18;25.23;;;15.23;;
71503;SDS011;59323;50.874;7.028;2022-08-19T07:40:44;27.30;;;16.35;;
71503;SDS011;59323;50.874;7.028;2022-08-19T07:43:11;26.05;;;16.25;;
71503;SDS011;59323;50.874;7.028;2022-08-19T07:45:36;27.90;;;15.93;;
71503;SDS011;59323;50.874;7.028;2022-08-19T07:48:02;29.80;;;16.17;;
71503;SDS011;59323;50.874;7.028;2022-08-19T07:50:29;25.40;;;15.80;;
71503;SDS011;59323;50.874;7.028;2022-08-19T07:52:54;25.17;;;12.83;;
71503;SDS011;59323;50.874;7.028;2022-08-19T07:55:24;29.83;;;15.47;;
71503;SDS011;59323;50.874;7.028;2022-08-19T07:57:50;22.67;;;14.18;;
71503;SDS011;59323;50.874;7.028;2022-08-19T08:00:17;24.17;;;13.27;;
71503;SDS011;59323;50.874;7.028;2022-08-19T08:02:43;20.13;;;12.02;;
71503;SDS011;59323;50.874;7.028;2022-08-19T08:05:09;24.73;;;13.13;;
71503;SDS011;59323;50.874;7.028;2022-08-19T08:07:54;20.05;;;11.20;;
71503;SDS011;59323;50.874;7.028;2022-08-19T08:10:38;21.20;;;11.50;;
71503;SDS011;59323;50.874;7.028;2022-08-19T08:13:03;21.73;;;12.50;;
71503;SDS011;59323;50.874;7.028;2022-08-19T08:15:30;25.65;;;14.82;;
71503;SDS011;59323;50.874;7.028;2022-08-19T08:17:56;26.52;;;14.85;;
71503;SDS011;59323;50.874;7.028;2022-08-19T08:20:22;26.67;;;15.60;;
71503;SDS011;59323;50.874;7.028;2022-08-19T08:22:48;29.27;;;16.90;;
71503;SDS011;59323;50.874;7.028;2022-08-19T08:25:33;28.80;;;15.93;;
71503;SDS011;59323;50.874;7.028;2022-08-19T08:28:00;26.02;;;15.52;;
71503;SDS011;59323;50.874;7.028;2022-08-19T08:30:27;31.55;;;16.27;;
71503;SDS011;59323;50.874;7.028;2022-08-19T08:32:54;27.08;;;16.25;;
71503;SDS011;59323;50.874;7.028;2022-08-19T08:35:21;27.07;;;15.57;;
71503;SDS011;59323;50.874;7.028;2022-08-19T08:37:48;28.20;;;16.02;;
71503;SDS011;59323;50.874;7.028;2022-08-19T08:43:22;23.73;;;14.23;;
71503;SDS011;59323;50.874;7.028;2022-08-19T08:45:54;22.67;;;11.65;;
71503;SDS011;59323;50.874;7.028;2022-08-19T08:48:46;23.93;;;13.90;;
71503;SDS011;59323;50.874;7.028;2022-08-19T08:51:38;26.20;;;15.45;;
71503;SDS011;59323;50.874;7.028;2022-08-19T08:54:08;25.55;;;15.23;;
71503;SDS011;59323;50.874;7.028;2022-08-19T08:56:37;32.58;;;16.75;;
71503;SDS011;59323;50.874;7.028;2022-08-19T08:59:05;33.20;;;18.88;;
71503;SDS011;59323;50.874;7.028;2022-08-19T09:01:52;31.43;;;19.03;;
71503;SDS011;59323;50.874;7.028;2022-08-19T09:04:17;27.42;;;16.15;;
71503;SDS011;59323;50.874;7.028;2022-08-19T09:06:50;36.17;;;19.33;;
71503;SDS011;59323;50.874;7.028;2022-08-19T09:09:18;39.38;;;21.02;;
71503;SDS011;59323;50.874;7.028;2022-08-19T09:17:18;33.42;;;19.35;;
71503;SDS011;59323;50.874;7.028;2022-08-19T09:22:25;33.10;;;18.55;;
71503;SDS011;59323;50.874;7.028;2022-08-19T09:24:54;34.35;;;20.42;;
71503;SDS011;59323;50.874;7.028;2022-08-19T09:27:21;35.40;;;19.90;;
71503;SDS011;59323;50.874;7.028;2022-08-19T09:29:49;34.30;;;19.15;;
71503;SDS011;59323;50.874;7.028;2022-08-19T09:32:15;38.97;;;21.97;;
71503;SDS011;59323;50.874;7.028;2022-08-19T09:34:43;29.38;;;17.33;;
71503;SDS011;59323;50.874;7.028;2022-08-19T09:37:09;36.53;;;20.10;;
71503;SDS011;59323;50.874;7.028;2022-08-19T09:39:34;31.83;;;18.23;;
71503;SDS011;59323;50.874;7.028;2022-08-19T09:42:00;28.63;;;16.53;;
71503;SDS011;59323;50.874;7.028;2022-08-19T09:44:25;32.70;;;19.57;;
71503;SDS011;59323;50.874;7.028;2022-08-19T09:46:51;37.77;;;22.10;;
71503;SDS011;59323;50.874;7.028;2022-08-19T09:49:17;34.20;;;19.33;;
71503;SDS011;59323;50.874;7.028;2022-08-19T09:51:45;34.45;;;15.45;;
71503;SDS011;59323;50.874;7.028;2022-08-19T09:54:14;28.00;;;17.50;;
71503;SDS011;59323;50.874;7.028;2022-08-19T09:56:39;27.83;;;16.55;;
71503;SDS011;59323;50.874;7.028;2022-08-19T09:59:04;28.70;;;18.07;;
71503;SDS011;59323;50.874;7.028;2022-08-19T10:01:31;26.80;;;16.40;;
71503;SDS011;59323;50.874;7.028;2022-08-19T10:03:58;32.70;;;17.85;;
71503;SDS011;59323;50.874;7.028;2022-08-19T10:06:25;28.10;;;17.83;;
71503;SDS011;59323;50.874;7.028;2022-08-19T10:08:55;23.65;;;14.73;;
71503;SDS011;59323;50.874;7.028;2022-08-19T10:11:20;25.30;;;15.83;;
71503;SDS011;59323;50.874;7.028;2022-08-19T10:13:46;19.87;;;13.40;;
71503;SDS011;59323;50.874;7.028;2022-08-19T10:16:13;25.48;;;13.85;;
71503;SDS011;59323;50.874;7.028;2022-08-19T10:18:47;16.58;;;10.70;;
71503;SDS011;59323;50.874;7.028;2022-08-19T10:23:40;18.30;;;11.40;;
71503;SDS011;59323;50.874;7.028;2022-08-19T10:26:10;18.38;;;13.07;;
71503;SDS011;59323;50.874;7.028;2022-08-19T10:28:37;19.02;;;11.50;;
71503;SDS011;59323;50.874;7.028;2022-08-19T10:31:06;15.77;;;10.23;;
71503;SDS011;59323;50.874;7.028;2022-08-19T10:33:34;19.50;;;12.73;;
71503;SDS011;59323;50.874;7.028;2022-08-19T10:36:03;20.63;;;11.90;;
71503;SDS011;59323;50.874;7.028;2022-08-19T10:38:31;22.70;;;12.85;;
71503;SDS011;59323;50.874;7.028;2022-08-19T10:40:56;20.65;;;13.30;;
71503;SDS011;59323;50.874;7.028;2022-08-19T10:43:23;16.07;;;11.40;;
71503;SDS011;59323;50.874;7.028;2022-08-19T10:45:53;18.13;;;12.43;;
71503;SDS011;59323;50.874;7.028;2022-08-19T10:48:24;19.45;;;12.43;;
71503;SDS011;59323;50.874;7.028;2022-08-19T10:50:49;16.63;;;10.47;;
71503;SDS011;59323;50.874;7.028;2022-08-19T10:53:33;13.98;;;9.30;;
71503;SDS011;59323;50.874;7.028;2022-08-19T10:55:59;17.23;;;10.60;;
71503;SDS011;59323;50.874;7.028;2022-08-19T10:58:43;18.10;;;11.73;;
71503;SDS011;59323;50.874;7.028;2022-08-19T11:01:09;17.30;;;11.50;;
71503;SDS011;59323;50.874;7.028;2022-08-19T11:03:35;15.63;;;10.67;;
71503;SDS011;59323;50.874;7.028;2022-08-19T11:06:01;15.02;;;10.48;;
71503;SDS011;59323;50.874;7.028;2022-08-19T11:08:32;16.13;;;10.73;;
71503;SDS011;59323;50.874;7.028;2022-08-19T11:10:59;19.08;;;12.35;;
71503;SDS011;59323;50.874;7.028;2022-08-19T11:13:28;16.13;;;10.02;;
71503;SDS011;59323;50.874;7.028;2022-08-19T11:15:56;16.45;;;11.15;;
71503;SDS011;59323;50.874;7.028;2022-08-19T11:18:25;16.20;;;9.52;;
71503;SDS011;59323;50.874;7.028;2022-08-19T11:20:51;13.63;;;8.77;;
71503;SDS011;59323;50.874;7.028;2022-08-19T11:23:17;17.85;;;10.63;;
71503;SDS011;59323;50.874;7.028;2022-08-19T11:25:42;19.97;;;11.57;;
71503;SDS011;59323;50.874;7.028;2022-08-19T11:28:07;18.27;;;11.40;;
71503;SDS011;59323;50.874;7.028;2022-08-19T11:30:33;19.90;;;11.85;;
71503;SDS011;59323;50.874;7.028;2022-08-19T11:32:58;16.03;;;9.93;;
71503;SDS011;59323;50.874;7.028;2022-08-19T11:35:25;17.40;;;10.80;;
71503;SDS011;59323;50.874;7.028;2022-08-19T11:37:51;18.03;;;10.63;;
71503;SDS011;59323;50.874;7.028;2022-08-19T11:40:16;15.02;;;10.43;;
71503;SDS011;59323;50.874;7.028;2022-08-19T11:42:42;18.07;;;11.17;;
71503;SDS011;59323;50.874;7.028;2022-08-19T11:45:21;13.65;;;8.48;;
71503;SDS011;59323;50.874;7.028;2022-08-19T11:47:50;18.45;;;10.68;;
71503;SDS011;59323;50.874;7.028;2022-08-19T11:50:16;15.13;;;8.50;;
71503;SDS011;59323;50.874;7.028;2022-08-19T11:52:42;12.02;;;7.78;;
71503;SDS011;59323;50.874;7.028;2022-08-19T11:55:09;13.55;;;9.57;;
71503;SDS011;59323;50.874;7.028;2022-08-19T11:57:34;13.10;;;7.90;;
71503;SDS011;59323;50.874;7.028;2022-08-19T12:00:00;11.80;;;8.47;;
71503;SDS011;59323;50.874;7.028;2022-08-19T12:02:26;13.75;;;9.63;;
71503;SDS011;59323;50.874;7.028;2022-08-19T12:04:52;13.00;;;8.03;;
71503;SDS011;59323;50.874;7.028;2022-08-19T12:07:17;13.57;;;8.80;;
71503;SDS011;59323;50.874;7.028;2022-08-19T12:09:42;16.80;;;9.20;;
71503;SDS011;59323;50.874;7.028;2022-08-19T12:12:08;12.03;;;8.50;;
71503;SDS011;59323;50.874;7.028;2022-08-19T12:14:34;20.15;;;9.18;;
71503;SDS011;59323;50.874;7.028;2022-08-19T12:17:00;20.67;;;9.60;;
71503;SDS011;59323;50.874;7.028;2022-08-19T12:19:27;12.85;;;8.52;;
71503;SDS011;59323;50.874;7.028;2022-08-19T12:21:58;14.85;;;8.63;;
71503;SDS011;59323;50.874;7.028;2022-08-19T12:24:24;15.73;;;8.45;;
71503;SDS011;59323;50.874;7.028;2022-08-19T12:26:50;16.03;;;8.20;;
71503;SDS011;59323;50.874;7.028;2022-08-19T12:29:16;14.98;;;7.55;;
71503;SDS011;59323;50.874;7.028;2022-08-19T12:31:41;15.27;;;7.30;;
71503;SDS011;59323;50.874;7.028;2022-08-19T12:34:07;12.40;;;8.10;;
71503;SDS011;59323;50.874;7.028;2022-08-19T12:36:33;14.83;;;8.30;;
71503;SDS011;59323;50.874;7.028;2022-08-19T12:38:59;10.88;;;7.70;;
71503;SDS011;59323;50.874;7.028;2022-08-19T12:41:24;16.70;;;9.07;;
71503;SDS011;59323;50.874;7.028;2022-08-19T12:43:51;11.43;;;7.43;;
71503;SDS011;59323;50.874;7.028;2022-08-19T12:46:17;11.63;;;7.32;;
71503;SDS011;59323;50.874;7.028;2022-08-19T12:48:44;12.63;;;7.10;;
71503;SDS011;59323;50.874;7.028;2022-08-19T12:51:11;9.93;;;6.20;;
71503;SDS011;59323;50.874;7.028;2022-08-19T12:53:38;9.00;;;5.93;;
71503;SDS011;59323;50.874;7.028;2022-08-19T12:56:05;13.73;;;6.47;;
71503;SDS011;59323;50.874;7.028;2022-08-19T12:58:32;10.82;;;6.45;;
71503;SDS011;59323;50.874;7.028;2022-08-19T13:00:59;9.87;;;6.80;;
71503;SDS011;59323;50.874;7.028;2022-08-19T13:03:30;10.20;;;6.43;;
71503;SDS011;59323;50.874;7.028;2022-08-19T13:05:56;10.33;;;5.63;;
71503;SDS011;59323;50.874;7.028;2022-08-19T13:08:21;9.90;;;6.13;;
71503;SDS011;59323;50.874;7.028;2022-08-19T13:10:47;12.93;;;6.77;;
71503;SDS011;59323;50.874;7.028;2022-08-19T13:13:12;11.27;;;6.43;;
71503;SDS011;59323;50.874;7.028;2022-08-19T13:15:39;11.48;;;7.13;;
71503;SDS011;59323;50.874;7.028;2022-08-19T13:18:06;12.85;;;8.07;;
71503;SDS011;59323;50.874;7.028;2022-08-19T13:20:34;12.23;;;6.93;;
71503;SDS011;59323;50.874;7.028;2022-08-19T13:23:01;14.00;;;8.73;;
71503;SDS011;59323;50.874;7.028;2022-08-19T13:25:26;15.05;;;8.25;;
71503;SDS011;59323;50.874;7.028;2022-08-19T13:27:52;13.87;;;9.07;;
71503;SDS011;59323;50.874;7.028;2022-08-19T13:30:18;13.67;;;9.07;;
71503;SDS011;59323;50.874;7.028;2022-08-19T13:33:03;11.05;;;7.15;;
71503;SDS011;59323;50.874;7.028;2022-08-19T13:35:36;11.93;;;6.78;;
71503;SDS011;59323;50.874;7.028;2022-08-19T13:38:26;11.35;;;7.35;;
71503;SDS011;59323;50.874;7.028;2022-08-19T13:40:53;12.57;;;7.90;;
71503;SDS011;59323;50.874;7.028;2022-08-19T13:43:21;13.83;;;6.83;;
71503;SDS011;59323;50.874;7.028;2022-08-19T13:45:48;11.95;;;6.88;;
71503;SDS011;59323;50.874;7.028;2022-08-19T13:48:20;12.32;;;6.63;;
71503;SDS011;59323;50.874;7.028;2022-08-19T13:50:45;11.77;;;7.53;;
71503;SDS011;59323;50.874;7.028;2022-08-19T13:53:13;11.90;;;7.07;;
71503;SDS011;59323;50.874;7.028;2022-08-19T13:55:43;11.68;;;7.22;;
71503;SDS011;59323;50.874;7.028;2022-08-19T13:58:09;12.90;;;6.78;;
71503;SDS011;59323;50.874;7.028;2022-08-19T14:00:36;10.52;;;6.45;;
71503;SDS011;59323;50.874;7.028;2022-08-19T14:03:04;10.82;;;5.95;;
71503;SDS011;59323;50.874;7.028;2022-08-19T14:05:30;10.03;;;5.77;;
71503;SDS011;59323;50.874;7.028;2022-08-19T14:07:56;14.30;;;6.75;;
71503;SDS011;59323;50.874;7.028;2022-08-19T14:10:22;10.63;;;5.80;;
71503;SDS011;59323;50.874;7.028;2022-08-19T14:12:49;10.27;;;5.80;;
71503;SDS011;59323;50.874;7.028;2022-08-19T14:15:20;11.03;;;6.63;;
71503;SDS011;59323;50.874;7.028;2022-08-19T14:17:46;9.93;;;5.53;;
71503;SDS011;59323;50.874;7.028;2022-08-19T14:20:14;11.98;;;6.43;;
71503;SDS011;59323;50.874;7.028;2022-08-19T14:22:41;13.57;;;6.82;;
71503;SDS011;59323;50.874;7.028;2022-08-19T14:25:08;13.40;;;6.80;;
71503;SDS011;59323;50.874;7.028;2022-08-19T14:27:37;11.93;;;6.50;;
71503;SDS011;59323;50.874;7.028;2022-08-19T14:30:05;10.68;;;6.63;;
71503;SDS011;59323;50.874;7.028;2022-08-19T14:32:31;10.00;;;6.10;;
71503;SDS011;59323;50.874;7.028;2022-08-19T14:34:57;11.93;;;6.65;;
71503;SDS011;59323;50.874;7.028;2022-08-19T14:37:23;11.37;;;5.60;;
71503;SDS011;59323;50.874;7.028;2022-08-19T14:39:48;9.97;;;5.80;;
71503;SDS011;59323;50.874;7.028;2022-08-19T14:42:14;8.95;;;5.60;;
71503;SDS011;59323;50.874;7.028;2022-08-19T14:44:40;11.50;;;6.50;;
71503;SDS011;59323;50.874;7.028;2022-08-19T14:47:06;10.50;;;6.50;;